Time;durP1;ratioP1;P1;durP2;ratioP2;P2;SDS_P1;SDS_P2;PMS_P1;PMS_P2;Temp;Humidity;BMP_temperature;BMP_pressure;BME280_temperature;BME280_humidity;BME280_pressure;Samples;Min_cycle;Max_cycle;Signal;HPM_P1;HPM_P2
2023/10/15 00:00:17;;;;;;;0.50;0.50;;;6.80;99.90;;;;;;5082902;28;20048;-78
2023/10/15 00:02:47;;;;;;;0.98;0.57;;;6.80;99.90;;;;;;5082844;28;20537;-77
2023/10/15 00:05:17;;;;;;;0.82;0.60;;;6.80;99.90;;;;;;5082712;28;20083;-80
2023/10/15 00:07:45;;;;;;;1.08;0.60;;;6.70;99.90;;;;;;5082793;28;20143;-80
2023/10/15 00:10:12;;;;;;;0.50;0.50;;;6.70;99.90;;;;;;5081590;28;20052;-80
2023/10/15 00:12:39;;;;;;;0.70;0.60;;;6.70;99.90;;;;;;5082213;28;20100;-80
2023/10/15 00:15:15;;;;;;;0.90;0.63;;;6.70;99.90;;;;;;5082428;28;20051;-81
2023/10/15 00:17:42;;;;;;;0.52;0.50;;;6.60;99.90;;;;;;5084064;28;20059;-80
2023/10/15 00:20:13;;;;;;;1.77;1.00;;;6.60;99.90;;;;;;5099478;28;20048;-80
2023/10/15 00:22:42;;;;;;;0.80;0.47;;;6.60;99.90;;;;;;5066964;28;20051;-81
2023/10/15 00:25:12;;;;;;;0.80;0.63;;;6.60;99.90;;;;;;5054299;28;20048;-80
2023/10/15 00:27:42;;;;;;;1.08;0.75;;;6.60;99.90;;;;;;5073872;28;20130;-80
2023/10/15 00:30:12;;;;;;;0.95;0.60;;;6.60;99.90;;;;;;5066007;28;20051;-79
2023/10/15 00:32:42;;;;;;;0.80;0.80;;;6.50;99.90;;;;;;5082969;28;20174;-82
2023/10/15 00:35:10;;;;;;;0.38;0.38;;;6.50;99.90;;;;;;5099070;28;20052;-81
2023/10/15 00:37:56;;;;;;;1.85;0.60;;;6.50;99.90;;;;;;5065710;28;20079;-81
2023/10/15 00:40:27;;;;;;;0.47;0.43;;;6.50;1.00;;;;;;5070274;28;20088;-80
2023/10/15 00:42:57;;;;;;;0.57;0.52;;;6.50;1.00;;;;;;5082186;28;20087;-80
2023/10/15 00:45:24;;;;;;;0.90;0.73;;;6.40;1.00;;;;;;5082574;28;20544;-80
2023/10/15 00:48:07;;;;;;;0.85;0.57;;;6.40;1.00;;;;;;5082393;28;20135;-79
2023/10/15 00:50:38;;;;;;;;;;;6.40;1.00;;;;;;5070930;28;20048;-79
2023/10/15 00:53:23;;;;;;;0.85;0.68;;;6.40;1.00;;;;;;5099322;28;19919;-79
2023/10/15 00:55:55;;;;;;;1.10;0.70;;;6.40;27.30;;;;;;5081432;28;20055;-79
2023/10/15 00:58:30;;;;;;;1.13;0.60;;;6.40;30.80;;;;;;5081959;28;20690;-78
2023/10/15 01:01:17;;;;;;;0.90;0.55;;;6.40;46.70;;;;;;5083830;28;20528;-78
2023/10/15 01:03:54;;;;;;;0.70;0.50;;;6.40;65.60;;;;;;5084675;28;20155;-79
2023/10/15 01:09:27;;;;;;;0.90;0.50;;;6.40;32.00;;;;;;5083596;28;20120;-79
2023/10/15 01:11:57;;;;;;;0.98;0.77;;;6.40;1.00;;;;;;5099357;28;20158;-80
2023/10/15 01:14:31;;;;;;;1.08;0.70;;;6.30;1.00;;;;;;5066648;28;20051;-79
2023/10/15 01:16:59;;;;;;;1.23;0.70;;;6.30;1.00;;;;;;5066365;28;20133;-79
2023/10/15 01:19:33;;;;;;;0.80;0.60;;;6.30;1.00;;;;;;5098831;28;20043;-79
2023/10/15 01:22:02;;;;;;;1.30;0.50;;;6.30;1.00;;;;;;5067616;28;20059;-79
2023/10/15 01:24:33;;;;;;;0.40;0.40;;;6.30;1.00;;;;;;5081483;28;20538;-80
2023/10/15 01:27:08;;;;;;;0.60;0.32;;;6.30;1.00;;;;;;5065779;28;20043;-79
2023/10/15 01:29:43;;;;;;;1.15;0.75;;;6.30;1.00;;;;;;5083283;28;20457;-79
2023/10/15 01:32:11;;;;;;;0.73;0.50;;;6.20;1.00;;;;;;5068630;28;20120;-79
2023/10/15 01:34:44;;;;;;;0.47;0.40;;;6.20;1.00;;;;;;5077463;28;20040;-79
2023/10/15 01:39:53;;;;;;;0.55;0.45;;;6.20;1.00;;;;;;5089008;28;20480;-79
2023/10/15 01:45:09;;;;;;;0.52;0.38;;;6.10;25.10;;;;;;5087605;28;20338;-79
2023/10/15 01:47:36;;;;;;;0.93;0.60;;;6.10;25.00;;;;;;5075497;28;20317;-80
2023/10/15 01:50:08;;;;;;;0.73;0.50;;;6.00;44.20;;;;;;5087702;28;20044;-79
2023/10/15 01:52:42;;;;;;;0.70;0.50;;;6.00;99.90;;;;;;5085409;28;20120;-80
2023/10/15 01:55:09;;;;;;;0.60;0.60;;;6.00;95.60;;;;;;5063475;28;20059;-79
2023/10/15 01:57:36;;;;;;;0.70;0.50;;;6.00;99.90;;;;;;5079926;28;20044;-80
2023/10/15 02:00:13;;;;;;;0.60;0.50;;;6.00;99.90;;;;;;5083945;28;20561;-79
2023/10/15 02:02:42;;;;;;;0.65;0.60;;;6.00;99.90;;;;;;5087928;28;20048;-79
2023/10/15 02:05:25;;;;;;;0.80;0.50;;;5.90;99.90;;;;;;5097027;28;20047;-80
2023/10/15 02:07:52;;;;;;;0.68;0.50;;;5.90;99.90;;;;;;5089071;28;20040;-79
2023/10/15 02:10:19;;;;;;;0.65;0.40;;;5.90;99.90;;;;;;5086859;28;20440;-79
2023/10/15 02:12:52;;;;;;;0.70;0.50;;;5.90;99.90;;;;;;5090108;28;20061;-79
2023/10/15 02:15:22;;;;;;;0.47;0.40;;;5.90;99.90;;;;;;5089760;28;20124;-80
2023/10/15 02:17:52;;;;;;;0.47;0.47;;;5.80;99.90;;;;;;5070158;28;20461;-79
2023/10/15 02:23:05;;;;;;;0.55;0.50;;;5.80;99.90;;;;;;5104816;28;20058;-80
2023/10/15 02:25:36;;;;;;;0.40;0.40;;;5.80;99.90;;;;;;5070629;28;20051;-80
2023/10/15 02:28:04;;;;;;;0.50;0.43;;;5.70;1.00;;;;;;5085209;28;20223;-79
2023/10/15 02:30:32;;;;;;;0.50;0.50;;;5.80;1.00;;;;;;5068436;28;20086;-79
2023/10/15 02:33:01;;;;;;;0.30;0.30;;;5.70;1.00;;;;;;5106144;28;20035;-79
2023/10/15 02:35:39;;;;;;;0.77;0.73;;;5.70;1.00;;;;;;5087986;28;20672;-79
2023/10/15 02:38:10;;;;;;;1.65;0.50;;;5.70;1.00;;;;;;5067299;28;20459;-79
2023/10/15 02:40:58;;;;;;;0.60;0.60;;;5.60;1.00;;;;;;5088095;28;20059;-80
2023/10/15 02:43:25;;;;;;;0.30;0.30;;;5.60;1.00;;;;;;5089676;28;20084;-79
2023/10/15 02:45:52;;;;;;;0.30;0.30;;;5.60;1.00;;;;;;5070550;28;20043;-79
2023/10/15 02:48:20;;;;;;;0.52;0.52;;;5.60;16.20;;;;;;5069560;28;20055;-79
2023/10/15 02:51:07;;;;;;;0.52;0.40;;;5.50;44.80;;;;;;5104709;28;20059;-79
2023/10/15 02:53:38;;;;;;;0.45;0.45;;;5.50;98.60;;;;;;5103396;28;20055;-79
2023/10/15 02:56:11;;;;;;;0.43;0.40;;;5.50;99.90;;;;;;5087444;28;20388;-79
2023/10/15 02:58:38;;;;;;;0.70;0.60;;;5.50;99.90;;;;;;5087758;28;20477;-79
2023/10/15 03:01:19;;;;;;;0.55;0.40;;;5.40;99.90;;;;;;5070456;28;20044;-79
2023/10/15 03:03:49;;;;;;;0.40;0.40;;;5.40;99.90;;;;;;5104466;28;20243;-79
2023/10/15 03:06:18;;;;;;;0.30;0.30;;;5.40;99.90;;;;;;5071111;28;20079;-78
2023/10/15 03:08:46;;;;;;;0.45;0.45;;;5.40;1.00;;;;;;5086914;28;20525;-79
2023/10/15 03:11:18;;;;;;;0.55;0.50;;;5.40;1.00;;;;;;5070122;28;20144;-79
2023/10/15 03:13:54;;;;;;;0.63;0.30;;;5.30;1.00;;;;;;5086566;28;20101;-79
2023/10/15 03:16:23;;;;;;;0.50;0.40;;;5.30;1.00;;;;;;5088281;28;20146;-79
2023/10/15 03:18:52;;;;;;;0.30;0.30;;;5.30;1.00;;;;;;5069953;28;20323;-79
2023/10/15 03:21:25;;;;;;;0.30;0.30;;;5.20;1.00;;;;;;5083603;28;20130;-79
2023/10/15 03:23:58;;;;;;;0.50;0.50;;;5.10;1.00;;;;;;5087104;28;20043;-79
2023/10/15 03:26:30;;;;;;;0.25;0.25;;;5.10;1.00;;;;;;5069184;28;20044;-79
2023/10/15 03:29:00;;;;;;;0.55;0.55;;;5.10;1.00;;;;;;5084462;28;20093;-79
2023/10/15 03:31:31;;;;;;;0.40;0.40;;;5.10;1.00;;;;;;5067184;28;20097;-79
2023/10/15 03:39:24;;;;;;;0.40;0.40;;;5.00;59.80;;;;;;5088468;28;20108;-79
2023/10/15 03:41:59;;;;;;;0.30;0.30;;;5.00;89.30;;;;;;5084256;28;20107;-79
2023/10/15 03:44:33;;;;;;;0.30;0.30;;;5.00;64.90;;;;;;5102501;28;20195;-79
2023/10/15 03:47:05;;;;;;;0.35;0.35;;;4.90;67.20;;;;;;5103291;28;20054;-79
2023/10/15 03:49:33;;;;;;;0.47;0.47;;;4.90;99.90;;;;;;5071258;28;20051;-79
2023/10/15 03:52:07;;;;;;;0.38;0.38;;;4.90;99.90;;;;;;5099251;28;20404;-79
2023/10/15 03:54:37;;;;;;;0.50;0.50;;;4.80;99.90;;;;;;5083812;28;20047;-79
2023/10/15 03:57:06;;;;;;;0.30;0.30;;;4.80;99.90;;;;;;5086485;28;20256;-79
2023/10/15 03:59:44;;;;;;;0.47;0.40;;;4.80;99.90;;;;;;5085572;28;20051;-79
2023/10/15 04:02:14;;;;;;;0.30;0.30;;;4.80;99.90;;;;;;5088013;28;20067;-79
2023/10/15 04:04:41;;;;;;;0.32;0.30;;;4.80;99.90;;;;;;5086450;28;20051;-79
2023/10/15 04:07:19;;;;;;;0.40;0.40;;;4.70;99.90;;;;;;5069345;28;20250;-79
2023/10/15 04:09:46;;;;;;;0.28;0.28;;;4.70;99.90;;;;;;5071451;28;20048;-79
2023/10/15 04:12:13;;;;;;;0.40;0.40;;;4.70;99.90;;;;;;5102551;28;20461;-78
2023/10/15 04:14:43;;;;;;;0.38;0.38;;;4.70;1.00;;;;;;5068834;28;20062;-79
2023/10/15 04:17:10;;;;;;;0.68;0.40;;;4.60;1.00;;;;;;5068753;28;20050;-78
2023/10/15 04:19:37;;;;;;;0.30;0.30;;;4.60;1.00;;;;;;5066807;28;20107;-79
2023/10/15 04:22:14;;;;;;;0.35;0.35;;;4.60;99.90;;;;;;5066594;28;20151;-79
2023/10/15 04:24:50;;;;;;;0.52;0.47;;;4.60;99.90;;;;;;5095261;28;20054;-79
2023/10/15 04:27:24;;;;;;;0.30;0.30;;;4.50;99.90;;;;;;5086086;28;20059;-78
2023/10/15 04:29:53;;;;;;;0.30;0.30;;;4.50;99.90;;;;;;5102620;28;20036;-78
2023/10/15 04:32:28;;;;;;;0.35;0.30;;;4.50;99.90;;;;;;5085872;28;20071;-78
2023/10/15 04:35:01;;;;;;;0.47;0.47;;;4.40;99.90;;;;;;5086994;28;20048;-79
2023/10/15 04:37:29;;;;;;;0.30;0.30;;;4.40;99.90;;;;;;5070751;28;20046;-78
2023/10/15 04:39:58;;;;;;;0.30;0.30;;;4.30;99.90;;;;;;5067919;28;20047;-78
2023/10/15 04:42:48;;;;;;;0.40;0.40;;;4.30;99.90;;;;;;5089275;28;20393;-78
2023/10/15 04:46:02;;;;;;;0.30;0.30;;;4.30;99.90;;;;;;5106166;28;20044;-79
2023/10/15 04:48:14;;;;;;;1.10;0.57;;;4.30;99.90;;;;;;5080542;28;20438;-79
2023/10/15 04:50:44;;;;;;;0.40;0.40;;;4.30;99.90;;;;;;5072321;28;20075;-78
2023/10/15 04:55:44;;;;;;;0.77;0.40;;;4.20;99.90;;;;;;5088986;28;20047;-78
2023/10/15 04:58:11;;;;;;;0.40;0.40;;;4.20;99.90;;;;;;5068659;28;20055;-79
2023/10/15 05:00:43;;;;;;;0.47;0.30;;;4.10;99.90;;;;;;5071102;28;20040;-79
2023/10/15 05:03:11;;;;;;;0.32;0.32;;;4.10;99.90;;;;;;5082875;28;20074;-79
2023/10/15 05:05:39;;;;;;;0.30;0.30;;;4.10;99.90;;;;;;5083668;28;20199;-79
2023/10/15 05:08:10;;;;;;;0.30;0.30;;;4.10;99.90;;;;;;5063290;28;20083;-78
2023/10/15 05:10:44;;;;;;;0.38;0.38;;;4.00;99.90;;;;;;5070262;28;20420;-78
2023/10/15 05:13:12;;;;;;;0.50;0.50;;;4.00;99.90;;;;;;5068648;28;20044;-78
2023/10/15 05:15:42;;;;;;;0.35;0.35;;;4.00;99.90;;;;;;5087069;28;20459;-79
2023/10/15 05:18:10;;;;;;;0.28;0.28;;;3.90;99.90;;;;;;5087688;28;20502;-79
2023/10/15 05:20:37;;;;;;;0.45;0.40;;;3.90;99.90;;;;;;5068720;28;20139;-79
2023/10/15 05:23:04;;;;;;;0.38;0.38;;;3.90;99.90;;;;;;5090144;28;20440;-79
2023/10/15 05:25:32;;;;;;;0.52;0.52;;;3.90;99.90;;;;;;5100637;28;20108;-78
2023/10/15 05:27:59;;;;;;;0.40;0.40;;;3.80;99.90;;;;;;5103685;28;20058;-78
2023/10/15 05:30:26;;;;;;;0.82;0.50;;;3.90;99.90;;;;;;5087725;28;20055;-79
2023/10/15 05:32:53;;;;;;;0.52;0.50;;;3.80;99.90;;;;;;5070745;28;20138;-79
2023/10/15 05:35:20;;;;;;;0.30;0.30;;;3.80;99.90;;;;;;5085299;28;20407;-78
2023/10/15 05:37:47;;;;;;;0.50;0.50;;;3.80;99.90;;;;;;5070195;28;20070;-78
2023/10/15 05:40:17;;;;;;;0.40;0.40;;;3.70;99.90;;;;;;5069401;28;20070;-78
2023/10/15 05:42:43;;;;;;;0.40;0.40;;;3.70;99.90;;;;;;5090036;28;20370;-79
2023/10/15 05:45:10;;;;;;;0.40;0.40;;;3.70;99.90;;;;;;5106511;28;20069;-78
2023/10/15 05:47:37;;;;;;;0.40;0.40;;;3.70;99.90;;;;;;5090139;28;20081;-78
2023/10/15 05:50:05;;;;;;;0.40;0.40;;;3.70;99.90;;;;;;5073067;28;20073;-78
2023/10/15 05:52:32;;;;;;;0.30;0.30;;;3.60;99.90;;;;;;5090052;28;20149;-79
2023/10/15 05:55:00;;;;;;;0.50;0.50;;;3.60;99.90;;;;;;5072522;28;20097;-78
2023/10/15 05:57:31;;;;;;;0.30;0.30;;;3.60;99.90;;;;;;5073357;28;20047;-79
2023/10/15 05:59:58;;;;;;;0.70;0.52;;;3.60;99.90;;;;;;5074019;28;20051;-78
2023/10/15 06:02:24;;;;;;;0.28;0.28;;;3.60;99.90;;;;;;5069773;28;20052;-78
2023/10/15 06:04:51;;;;;;;0.30;0.30;;;3.50;99.90;;;;;;5086620;28;20051;-78
2023/10/15 06:07:18;;;;;;;0.52;0.35;;;3.50;99.90;;;;;;5089319;28;20128;-78
2023/10/15 06:09:45;;;;;;;0.25;0.25;;;3.50;99.90;;;;;;5088753;28;20116;-78
2023/10/15 06:12:13;;;;;;;0.32;0.32;;;3.50;99.90;;;;;;5089203;28;20040;-78
2023/10/15 06:14:40;;;;;;;0.30;0.30;;;3.50;99.90;;;;;;5069053;28;20314;-78
2023/10/15 06:17:07;;;;;;;0.30;0.30;;;3.50;1.00;;;;;;5072199;28;20054;-78
2023/10/15 06:19:34;;;;;;;0.20;0.20;;;3.50;1.00;;;;;;5070482;28;20414;-79
2023/10/15 06:22:03;;;;;;;0.40;0.40;;;3.50;1.00;;;;;;5084987;28;20074;-79
2023/10/15 06:24:30;;;;;;;0.30;0.30;;;3.50;1.00;;;;;;5086181;28;20047;-79
2023/10/15 06:26:57;;;;;;;0.30;0.30;;;3.50;1.00;;;;;;5102736;28;20529;-79
2023/10/15 06:29:24;;;;;;;0.40;0.40;;;3.50;1.00;;;;;;5085557;28;20044;-79
2023/10/15 06:31:51;;;;;;;0.20;0.20;;;3.50;1.00;;;;;;5072405;28;20109;-79
2023/10/15 06:34:18;;;;;;;0.38;0.38;;;3.60;1.00;;;;;;5072469;28;20055;-79
2023/10/15 06:36:47;;;;;;;0.32;0.32;;;3.60;1.00;;;;;;5089106;28;20075;-78
2023/10/15 06:39:14;;;;;;;0.30;0.30;;;3.60;1.00;;;;;;5056013;28;20114;-79
2023/10/15 06:41:42;;;;;;;0.50;0.50;;;3.50;99.90;;;;;;5101346;28;20055;-78
2023/10/15 06:44:10;;;;;;;0.50;0.50;;;3.50;99.90;;;;;;5079718;28;20493;-78
2023/10/15 06:46:38;;;;;;;0.30;0.30;;;3.50;99.90;;;;;;5086936;28;20039;-79
2023/10/15 06:49:07;;;;;;;0.40;0.40;;;3.50;1.00;;;;;;5070807;28;20167;-79
2023/10/15 06:51:34;;;;;;;0.30;0.30;;;3.50;1.00;;;;;;5099359;28;20453;-79
2023/10/15 06:54:01;;;;;;;0.30;0.30;;;3.50;1.00;;;;;;5088850;28;20044;-79
2023/10/15 06:56:29;;;;;;;0.30;0.30;;;3.60;1.00;;;;;;5084496;28;20493;-79
2023/10/15 06:58:56;;;;;;;0.40;0.40;;;3.60;14.80;;;;;;5059202;28;20265;-79
2023/10/15 07:01:26;;;;;;;0.40;0.40;;;3.70;11.20;;;;;;5100393;28;20100;-79
2023/10/15 07:03:53;;;;;;;0.43;0.43;;;3.70;60.20;;;;;;5069327;28;20170;-79
2023/10/15 07:06:20;;;;;;;0.40;0.40;;;3.70;80.30;;;;;;5102304;28;20209;-79
2023/10/15 07:08:47;;;;;;;0.32;0.32;;;3.80;91.60;;;;;;5085576;28;20056;-79
2023/10/15 07:11:14;;;;;;;0.40;0.40;;;3.80;69.80;;;;;;5069215;28;20047;-80
2023/10/15 07:13:42;;;;;;;0.47;0.47;;;3.90;60.00;;;;;;5087677;28;20051;-79
2023/10/15 07:16:11;;;;;;;0.43;0.43;;;3.90;30.50;;;;;;5092137;28;20050;-79
2023/10/15 07:18:39;;;;;;;0.50;0.50;;;4.00;7.70;;;;;;5087406;28;20058;-79
2023/10/15 07:21:08;;;;;;;0.32;0.32;;;4.00;14.60;;;;;;5071003;28;20047;-79
2023/10/15 07:23:35;;;;;;;0.45;0.40;;;4.00;35.30;;;;;;5104790;28;20393;-79
2023/10/15 07:26:02;;;;;;;0.30;0.30;;;4.10;74.00;;;;;;5087742;28;20151;-79
2023/10/15 07:28:28;;;;;;;0.38;0.38;;;4.20;96.20;;;;;;5104785;28;20450;-80
2023/10/15 07:30:55;;;;;;;0.47;0.47;;;4.30;99.90;;;;;;5105238;28;20056;-79
2023/10/15 07:33:23;;;;;;;0.30;0.30;;;4.30;99.90;;;;;;5085029;28;20044;-79
2023/10/15 07:35:50;;;;;;;0.30;0.30;;;4.40;97.70;;;;;;5084851;28;20035;-78
2023/10/15 07:38:18;;;;;;;0.20;0.20;;;4.40;65.20;;;;;;5086107;28;20188;-79
2023/10/15 07:40:45;;;;;;;0.50;0.40;;;4.50;98.40;;;;;;5068613;28;20568;-78
2023/10/15 07:43:12;;;;;;;0.52;0.50;;;4.50;99.90;;;;;;5082030;28;20075;-80
2023/10/15 07:45:38;;;;;;;0.38;0.38;;;4.60;93.30;;;;;;5061561;28;20168;-80
2023/10/15 07:48:07;;;;;;;0.30;0.30;;;4.70;99.90;;;;;;5076931;28;20060;-79
2023/10/15 07:50:34;;;;;;;0.30;0.30;;;4.70;99.90;;;;;;5099396;28;20108;-80
2023/10/15 07:53:03;;;;;;;0.40;0.40;;;4.80;99.90;;;;;;5086135;28;20048;-79
2023/10/15 07:55:31;;;;;;;0.52;0.35;;;4.90;99.90;;;;;;5087344;28;20079;-79
2023/10/15 07:57:58;;;;;;;0.32;0.30;;;5.00;93.60;;;;;;5067241;28;20048;-80
2023/10/15 08:00:29;;;;;;;0.35;0.35;;;5.00;23.70;;;;;;5078547;28;20058;-78
2023/10/15 08:02:57;;;;;;;0.20;0.20;;;5.00;13.90;;;;;;5070073;28;20079;-78
2023/10/15 08:05:32;;;;;;;0.25;0.25;;;5.10;1.00;;;;;;5083688;28;20405;-79
2023/10/15 08:08:03;;;;;;;0.32;0.30;;;5.20;1.00;;;;;;5083770;28;20117;-79
2023/10/15 08:10:34;;;;;;;0.40;0.40;;;5.20;1.00;;;;;;5083931;28;20060;-78
2023/10/15 08:13:04;;;;;;;0.52;0.43;;;5.30;1.00;;;;;;5086688;28;20054;-79
2023/10/15 08:15:33;;;;;;;0.30;0.30;;;5.30;99.90;;;;;;5061145;28;20163;-79
2023/10/15 08:18:01;;;;;;;0.73;0.40;;;5.40;99.90;;;;;;5103648;28;20371;-79
2023/10/15 08:20:29;;;;;;;0.68;0.57;;;5.50;99.90;;;;;;5079250;28;20051;-79
2023/10/15 08:22:56;;;;;;;1.00;0.40;;;5.50;99.90;;;;;;5085583;28;20043;-80
2023/10/15 08:25:23;;;;;;;0.55;0.47;;;5.60;99.90;;;;;;5102861;28;20074;-80
2023/10/15 08:27:50;;;;;;;0.43;0.32;;;5.70;99.90;;;;;;5086363;28;20477;-80
2023/10/15 08:30:21;;;;;;;0.63;0.50;;;5.80;99.90;;;;;;5094717;28;20113;-80
2023/10/15 08:32:47;;;;;;;0.35;0.35;;;5.80;99.90;;;;;;5085057;28;20043;-81
2023/10/15 08:35:15;;;;;;;1.13;0.63;;;5.90;58.70;;;;;;5103653;28;20131;-80
2023/10/15 08:37:42;;;;;;;0.40;0.40;;;6.00;1.00;;;;;;5086393;28;20147;-81
2023/10/15 08:40:15;;;;;;;0.40;0.40;;;6.00;1.00;;;;;;5074786;28;20039;-82
2023/10/15 08:42:57;;;;;;;0.93;0.70;;;6.10;99.90;;;;;;5099516;28;20360;-81
2023/10/15 08:45:24;;;;;;;0.63;0.40;;;6.20;99.90;;;;;;5096529;28;20060;-81
2023/10/15 08:47:51;;;;;;;1.00;0.50;;;6.20;1.00;;;;;;5097230;28;20043;-78
2023/10/15 08:50:20;;;;;;;0.35;0.32;;;6.30;1.00;;;;;;5079264;28;20070;-78
2023/10/15 08:52:49;;;;;;;0.75;0.50;;;6.30;99.90;;;;;;5085051;28;20040;-81
2023/10/15 08:55:15;;;;;;;0.60;0.50;;;6.40;99.90;;;;;;5067477;28;20059;-79
2023/10/15 08:57:42;;;;;;;0.32;0.32;;;6.40;99.90;;;;;;5080258;28;20043;-78
2023/10/15 09:00:25;;;;;;;0.85;0.50;;;6.50;99.90;;;;;;5067052;28;20374;-78
2023/10/15 09:03:00;;;;;;;0.30;0.30;;;6.60;99.90;;;;;;5061033;28;20055;-81
2023/10/15 09:05:33;;;;;;;0.25;0.25;;;6.70;99.90;;;;;;5090953;28;20128;-80
2023/10/15 09:08:07;;;;;;;0.50;0.50;;;6.80;99.90;;;;;;5096436;28;20083;-80
2023/10/15 09:10:36;;;;;;;0.50;0.50;;;6.90;99.90;;;;;;5070875;28;20084;-80
2023/10/15 09:13:04;;;;;;;0.55;0.55;;;7.00;1.00;;;;;;5079351;28;20213;-80
2023/10/15 09:15:31;;;;;;;0.50;0.50;;;7.20;99.90;;;;;;5101012;28;20246;-78
2023/10/15 09:17:59;;;;;;;0.50;0.50;;;7.30;97.80;;;;;;5081955;28;20512;-78
2023/10/15 09:20:27;;;;;;;0.40;0.40;;;7.40;1.00;;;;;;5083835;28;20413;-78
2023/10/15 09:22:57;;;;;;;0.28;0.28;;;7.50;1.00;;;;;;5063230;28;20036;-79
2023/10/15 09:25:27;;;;;;;0.52;0.50;;;7.50;99.90;;;;;;5100210;28;20047;-79
2023/10/15 09:27:55;;;;;;;0.82;0.60;;;7.60;99.90;;;;;;5072175;28;20491;-79
2023/10/15 09:30:42;;;;;;;1.67;0.80;;;7.70;99.90;;;;;;5069365;28;20477;-77
2023/10/15 09:33:12;;;;;;;1.92;0.85;;;7.80;99.90;;;;;;5085427;28;20039;-79
2023/10/15 09:35:39;;;;;;;0.75;0.60;;;8.00;1.00;;;;;;5085879;28;20074;-78
2023/10/15 09:38:10;;;;;;;0.70;0.63;;;8.10;99.90;;;;;;5081601;28;20105;-78
2023/10/15 09:40:37;;;;;;;0.68;0.60;;;8.30;99.90;;;;;;5079782;28;20047;-79
2023/10/15 09:43:04;;;;;;;1.42;0.95;;;8.50;1.00;;;;;;5079762;28;20131;-79
2023/10/15 09:45:31;;;;;;;3.13;0.90;;;8.50;1.00;;;;;;5086341;28;20074;-79
2023/10/15 09:47:58;;;;;;;3.53;1.60;;;8.50;1.00;;;;;;5067468;28;20481;-81
2023/10/15 09:50:27;;;;;;;2.25;0.98;;;8.50;1.00;;;;;;5086541;28;20097;-81
2023/10/15 09:52:56;;;;;;;1.75;0.90;;;8.50;1.00;;;;;;5099797;28;20044;-81
2023/10/15 09:55:26;;;;;;;2.30;1.10;;;8.50;1.00;;;;;;5102188;28;20036;-81
2023/10/15 09:57:57;;;;;;;1.73;0.80;;;8.60;1.00;;;;;;5088796;28;20192;-79
2023/10/15 10:00:48;;;;;;;1.25;0.85;;;8.60;1.00;;;;;;5089785;28;20062;-79
2023/10/15 10:03:37;;;;;;;1.55;1.02;;;8.60;1.00;;;;;;5072658;28;20557;-79
2023/10/15 10:06:22;;;;;;;0.90;0.70;;;8.60;1.00;;;;;;5107098;28;20044;-79
2023/10/15 10:09:03;;;;;;;1.35;0.70;;;8.80;1.00;;;;;;5107500;28;20135;-79
2023/10/15 10:11:55;;;;;;;1.77;0.80;;;8.90;1.00;;;;;;5090391;28;20092;-79
2023/10/15 10:14:36;;;;;;;2.00;0.90;;;9.00;1.00;;;;;;5106965;28;20048;-80
2023/10/15 10:17:04;;;;;;;1.85;0.63;;;9.10;1.00;;;;;;5108175;28;20091;-80
2023/10/15 10:19:31;;;;;;;0.70;0.60;;;9.10;1.00;;;;;;5089710;28;20082;-80
2023/10/15 10:21:58;;;;;;;1.63;0.90;;;9.10;1.00;;;;;;5089301;28;20143;-81
2023/10/15 10:24:40;;;;;;;1.27;0.75;;;9.00;1.00;;;;;;5087801;28;20043;-80
2023/10/15 10:27:15;;;;;;;1.05;0.73;;;9.10;1.00;;;;;;5073709;28;20035;-80
2023/10/15 10:29:43;;;;;;;1.48;0.70;;;9.10;1.00;;;;;;5072570;28;20058;-80
2023/10/15 10:32:13;;;;;;;2.80;0.65;;;9.20;1.00;;;;;;5077693;28;20444;-81
2023/10/15 10:34:42;;;;;;;1.52;0.80;;;9.20;1.00;;;;;;5085174;28;20647;-80
2023/10/15 10:37:22;;;;;;;1.83;0.98;;;9.20;1.00;;;;;;5062955;28;20358;-80
2023/10/15 10:39:49;;;;;;;1.75;0.90;;;9.20;1.00;;;;;;5069207;28;20624;-80
2023/10/15 10:42:21;;;;;;;1.10;0.80;;;9.20;1.00;;;;;;5095430;28;20068;-80
2023/10/15 10:44:48;;;;;;;1.65;0.80;;;9.30;1.00;;;;;;5088682;28;20055;-80
2023/10/15 10:47:23;;;;;;;1.67;0.93;;;9.30;1.00;;;;;;5075996;28;20119;-80
2023/10/15 10:50:19;;;;;;;1.80;0.95;;;9.30;1.00;;;;;;5068610;28;20598;-80
2023/10/15 10:52:46;;;;;;;1.98;0.90;;;9.40;1.00;;;;;;5093373;28;20055;-80
2023/10/15 10:55:33;;;;;;;2.50;0.93;;;9.40;1.00;;;;;;5070400;28;20114;-80
2023/10/15 10:58:07;;;;;;;2.13;1.10;;;9.40;1.00;;;;;;5078179;28;20047;-79
2023/10/15 11:00:34;;;;;;;2.92;0.90;;;9.50;1.00;;;;;;5088333;28;20104;-78
2023/10/15 11:03:06;;;;;;;2.00;0.90;;;9.50;1.00;;;;;;5083799;28;21762;-78
2023/10/15 11:05:34;;;;;;;2.22;0.80;;;9.60;1.00;;;;;;5095053;28;20369;-78
2023/10/15 11:08:03;;;;;;;2.45;1.20;;;9.70;1.00;;;;;;5096149;28;20083;-79
2023/10/15 11:10:32;;;;;;;1.33;0.80;;;9.90;1.00;;;;;;5065019;28;20054;-79
2023/10/15 11:12:59;;;;;;;1.45;0.70;;;10.00;1.00;;;;;;5084728;28;20048;-79
2023/10/15 11:15:26;;;;;;;1.58;1.08;;;10.20;1.00;;;;;;5059233;28;20930;-79
2023/10/15 11:17:57;;;;;;;2.47;1.10;;;10.30;1.00;;;;;;5065065;28;20469;-80
2023/10/15 11:20:30;;;;;;;1.73;0.85;;;10.50;1.00;;;;;;5079653;28;20127;-79
2023/10/15 11:23:01;;;;;;;2.85;0.90;;;10.60;1.00;;;;;;5098514;28;20083;-80
2023/10/15 11:25:28;;;;;;;2.00;1.00;;;10.70;1.00;;;;;;5094185;28;20070;-80
2023/10/15 11:27:55;;;;;;;1.48;0.60;;;10.80;1.00;;;;;;5088377;28;20044;-80
2023/10/15 11:30:25;;;;;;;2.72;1.20;;;10.80;1.00;;;;;;5078437;28;20051;-79
2023/10/15 11:32:52;;;;;;;1.40;0.57;;;10.70;1.00;;;;;;5099949;28;20128;-79
2023/10/15 11:35:19;;;;;;;1.00;0.90;;;10.80;1.00;;;;;;5081633;28;20468;-79
2023/10/15 11:37:52;;;;;;;1.23;0.82;;;11.00;1.00;;;;;;5059918;28;20944;-81
2023/10/15 11:40:20;;;;;;;2.85;0.88;;;11.10;1.00;;;;;;5081022;28;20043;-81
2023/10/15 11:42:51;;;;;;;1.77;1.17;;;11.20;1.00;;;;;;5061318;28;20043;-80
2023/10/15 11:45:30;;;;;;;2.33;1.30;;;11.40;1.00;;;;;;5064084;28;20577;-80
2023/10/15 11:47:57;;;;;;;2.10;1.35;;;11.60;1.00;;;;;;5095101;28;20093;-80
2023/10/15 11:50:24;;;;;;;2.05;1.20;;;11.70;1.00;;;;;;5065082;28;20043;-80
2023/10/15 11:52:54;;;;;;;3.28;1.40;;;11.70;1.00;;;;;;5082441;28;20043;-81
2023/10/15 11:55:24;;;;;;;2.50;1.23;;;11.70;1.00;;;;;;5077815;28;20047;-80
2023/10/15 11:57:51;;;;;;;1.83;1.13;;;11.90;1.00;;;;;;5076818;28;20578;-81
2023/10/15 12:00:32;;;;;;;1.42;0.90;;;12.10;1.00;;;;;;5080996;28;20501;-82
2023/10/15 12:03:00;;;;;;;2.30;1.10;;;12.30;1.00;;;;;;5095297;28;20736;-81
2023/10/15 12:05:31;;;;;;;2.00;0.85;;;12.40;1.00;;;;;;5093826;28;20244;-82
2023/10/15 12:07:59;;;;;;;1.67;0.82;;;12.40;1.00;;;;;;5064983;28;20044;-81
2023/10/15 12:10:28;;;;;;;1.88;0.85;;;12.40;1.00;;;;;;5075624;28;20047;-81
2023/10/15 12:12:57;;;;;;;2.05;0.90;;;12.40;1.00;;;;;;5086647;28;20419;-80
2023/10/15 12:15:24;;;;;;;1.65;0.90;;;12.60;1.00;;;;;;5092352;28;20059;-81
2023/10/15 12:17:51;;;;;;;1.90;1.02;;;12.90;1.00;;;;;;5073839;28;20123;-80
2023/10/15 12:20:18;;;;;;;2.22;1.27;;;12.80;1.00;;;;;;5096345;28;20133;-80
2023/10/15 12:22:46;;;;;;;1.60;0.98;;;12.80;1.00;;;;;;5065658;28;20154;-80
2023/10/15 12:25:13;;;;;;;1.83;1.02;;;13.00;1.00;;;;;;5097835;28;20044;-79
2023/10/15 12:27:40;;;;;;;1.15;0.88;;;13.20;1.00;;;;;;5081028;28;20044;-81
2023/10/15 12:30:12;;;;;;;1.05;0.73;;;13.40;1.00;;;;;;5096693;28;20044;-80
2023/10/15 12:32:39;;;;;;;1.27;0.93;;;13.50;1.00;;;;;;5095838;28;20063;-81
2023/10/15 12:35:13;;;;;;;1.85;1.00;;;13.80;1.00;;;;;;5078951;28;20554;-81
2023/10/15 12:37:41;;;;;;;2.53;1.02;;;13.90;1.00;;;;;;5098470;28;20050;-80
2023/10/15 12:40:21;;;;;;;1.58;0.95;;;14.10;1.00;;;;;;5096242;28;21389;-81
2023/10/15 12:42:48;;;;;;;1.17;0.68;;;14.00;1.00;;;;;;5094614;28;20066;-80
2023/10/15 12:45:15;;;;;;;1.60;0.88;;;14.30;1.00;;;;;;5088807;28;20047;-80
2023/10/15 12:47:42;;;;;;;1.33;0.90;;;14.30;1.00;;;;;;5093380;28;20055;-81
2023/10/15 12:50:15;;;;;;;2.28;1.00;;;14.10;1.00;;;;;;5092112;28;20051;-80
2023/10/15 12:52:45;;;;;;;1.50;0.82;;;14.10;1.00;;;;;;5095951;28;20079;-81
2023/10/15 12:55:12;;;;;;;1.58;1.00;;;14.20;1.00;;;;;;5086620;28;20052;-80
2023/10/15 12:57:40;;;;;;;1.27;1.00;;;14.50;1.00;;;;;;5057208;28;20063;-81
2023/10/15 13:00:22;;;;;;;0.98;0.77;;;14.50;1.00;;;;;;5097592;28;20043;-80
2023/10/15 13:02:50;;;;;;;1.08;0.75;;;14.50;1.00;;;;;;5095488;28;20483;-81
2023/10/15 13:05:24;;;;;;;1.55;1.10;;;14.50;99.90;;;;;;5071536;28;20052;-81
2023/10/15 13:07:52;;;;;;;1.25;0.70;;;14.80;1.00;;;;;;5062819;28;20372;-80
2023/10/15 13:10:20;;;;;;;1.02;0.90;;;15.10;1.00;;;;;;5075624;28;20045;-81
2023/10/15 13:12:47;;;;;;;2.17;0.95;;;15.40;99.90;;;;;;5076328;28;20052;-81
2023/10/15 13:15:16;;;;;;;2.28;1.00;;;15.20;99.90;;;;;;5061970;28;20690;-81
2023/10/15 13:17:43;;;;;;;1.30;0.75;;;15.10;99.90;;;;;;5061310;28;20449;-81
2023/10/15 13:20:14;;;;;;;0.98;0.80;;;15.10;99.90;;;;;;5081543;28;20087;-81
2023/10/15 13:22:42;;;;;;;1.08;0.73;;;15.40;99.90;;;;;;5060563;28;20048;-81
2023/10/15 13:25:09;;;;;;;1.20;0.80;;;15.80;99.90;;;;;;5063738;28;20122;-80
2023/10/15 13:27:36;;;;;;;1.20;0.88;;;15.90;99.90;;;;;;5076933;28;20047;-81
2023/10/15 13:30:04;;;;;;;1.67;0.93;;;15.90;99.90;;;;;;5077360;28;20545;-85
2023/10/15 13:32:31;;;;;;;1.08;0.70;;;15.60;99.90;;;;;;5059408;28;20178;-81
2023/10/15 13:34:58;;;;;;;1.38;0.95;;;15.70;99.90;;;;;;5101319;28;20138;-81